Time;durP1;ratioP1;P1;durP2;ratioP2;P2;SDS_P1;SDS_P2;PMS_P1;PMS_P2;Temp;Humidity;BMP_temperature;BMP_pressure;BME280_temperature;BME280_humidity;BME280_pressure;Samples;Min_cycle;Max_cycle;Signal;HPM_P1;HPM_P2
2021/11/08 00:01:32;;;;;;;;;15.50;11.50;;;;;12.45;60.48;101934.25;5052874;28;45403;-69
2021/11/08 00:03:57;;;;;;;;;15.75;12.25;;;;;12.42;60.62;101930.72;5060230;28;45612;-69
2021/11/08 00:06:23;;;;;;;;;18.25;15.25;;;;;12.42;60.64;101930.72;5060209;28;46313;-69
2021/11/08 00:08:49;;;;;;;;;15.25;15.25;;;;;12.36;60.60;101911.22;5059921;28;45193;-69
2021/11/08 00:11:15;;;;;;;;;15.75;13.75;;;;;12.37;60.52;101915.66;5060248;28;45235;-69
2021/11/08 00:13:41;;;;;;;;;16.50;16.50;;;;;12.36;60.49;101919.25;5060012;28;45149;-69
2021/11/08 00:19:08;;;;;;;;;15.75;15.00;;;;;12.26;60.83;101915.88;5054257;28;45320;-69
2021/11/08 00:21:35;;;;;;;;;19.00;18.25;;;;;12.28;60.55;101914.06;5060130;28;45496;-69
2021/11/08 00:24:01;;;;;;;;;24.75;21.00;;;;;12.29;60.75;101910.47;5059882;28;45541;-68
2021/11/08 00:26:27;;;;;;;;;21.25;17.50;;;;;12.25;60.48;101914.13;5057777;28;46068;-69
2021/11/08 00:28:53;;;;;;;;;26.25;21.00;;;;;12.26;60.72;101917.69;5049218;28;45353;-69
2021/11/08 00:31:18;;;;;;;;;24.25;23.25;;;;;12.21;60.48;101909.72;5059630;28;45479;-69
2021/11/08 00:33:44;;;;;;;;;26.00;24.25;;;;;12.16;60.99;101912.53;5060070;28;45489;-69
2021/11/08 00:36:10;;;;;;;;;24.50;23.00;;;;;12.14;60.85;101919.69;5059672;28;46352;-69
2021/11/08 00:38:35;;;;;;;;;27.25;22.50;;;;;12.14;60.98;101926.84;5059596;28;45285;-69
2021/11/08 00:41:01;;;;;;;;;27.25;22.50;;;;;12.13;60.86;101920.63;5059906;28;45443;-69
2021/11/08 00:43:27;;;;;;;;;24.00;22.00;;;;;12.11;60.45;101918.88;5060122;28;45337;-69
2021/11/08 00:45:53;;;;;;;;;32.00;26.25;;;;;12.10;60.91;101926.03;5058984;28;46245;-69
2021/11/08 00:48:21;;;;;;;;;25.50;24.25;;;;;12.10;60.69;101923.34;5039310;28;45409;-69
2021/11/08 00:50:50;;;;;;;;;21.25;19.00;;;;;12.08;60.99;101910.91;5057392;28;45496;-69
2021/11/08 00:53:16;;;;;;;;;26.25;23.50;;;;;12.04;61.03;101910.06;5058412;28;45429;-68
2021/11/08 00:55:42;;;;;;;;;29.00;25.00;;;;;12.04;61.02;101924.38;5059442;28;46804;-68
2021/11/08 00:58:14;;;;;;;;;21.75;18.25;;;;;12.02;61.37;101927.97;5059640;28;45252;-68
2021/11/08 01:00:40;;;;;;;;;22.00;18.00;;;;;12.03;61.05;101930.63;5059595;28;45529;-69
2021/11/08 01:03:07;;;;;;;;;21.25;16.00;;;;;12.02;61.33;101930.66;5063185;28;45437;-69
2021/11/08 01:05:33;;;;;;;;;25.00;19.50;;;;;12.00;61.05;101932.47;5062679;28;46893;-68
2021/11/08 01:07:59;;;;;;;;;18.25;16.75;;;;;11.98;61.03;101931.63;5061918;28;45334;-68
2021/11/08 01:10:25;;;;;;;;;17.75;16.00;;;;;11.95;61.41;101926.34;5062739;28;45159;-68
2021/11/08 01:12:50;;;;;;;;;23.75;18.25;;;;;11.92;61.09;101919.22;5063146;28;45265;-68
2021/11/08 01:15:16;;;;;;;;;20.25;14.75;;;;;11.92;60.97;101926.38;5062570;28;45299;-68
2021/11/08 01:17:42;;;;;;;;;12.50;12.50;;;;;11.92;61.27;101939.75;5062874;28;45440;-68
2021/11/08 01:20:09;;;;;;;;;12.25;12.25;;;;;11.92;61.49;101934.41;5062497;28;45501;-69
2021/11/08 01:22:36;;;;;;;;;15.50;13.25;;;;;11.91;61.16;101929.94;5059171;28;45454;-69
2021/11/08 01:25:04;;;;;;;;;16.25;15.00;;;;;11.90;61.08;101925.50;5061344;28;48498;-69
2021/11/08 01:27:42;;;;;;;;;16.25;12.25;;;;;11.88;61.26;101928.22;5062663;28;45342;-69
2021/11/08 01:30:13;;;;;;;;;17.25;15.00;;;;;11.86;61.24;101924.66;5062362;28;45232;-69
2021/11/08 01:32:52;;;;;;;;;12.75;11.75;;;;;11.85;61.69;101915.75;5062554;28;45465;-69
2021/11/08 01:35:18;;;;;;;;;13.25;10.00;;;;;11.83;61.71;101917.59;5072887;27;47118;-69
2021/11/08 01:37:50;;;;;;;;;14.00;13.00;;;;;11.80;61.54;101920.31;5060002;28;45307;-69
2021/11/08 01:40:16;;;;;;;;;15.50;11.25;;;;;11.82;61.43;101921.16;5061335;28;45368;-69
2021/11/08 01:42:41;;;;;;;;;16.00;14.25;;;;;11.81;61.54;101905.13;5062434;28;45588;-69
2021/11/08 01:45:07;;;;;;;;;20.00;17.25;;;;;11.80;61.60;101908.75;5061751;28;47154;-68
2021/11/08 01:47:32;;;;;;;;;22.25;19.25;;;;;11.77;61.77;101909.66;5046337;28;45301;-68
2021/11/08 01:49:58;;;;;;;;;21.50;21.50;;;;;11.72;61.39;101906.19;5062265;28;45365;-68
2021/11/08 01:52:23;;;;;;;;;22.75;22.00;;;;;11.71;61.56;101907.13;5062140;28;45247;-69
2021/11/08 01:54:48;;;;;;;;;22.75;20.00;;;;;11.77;61.32;101912.34;5062543;28;45255;-69
2021/11/08 01:57:14;;;;;;;;;26.50;23.25;;;;;11.75;61.71;101908.81;5062208;28;45404;-68
2021/11/08 01:59:39;;;;;;;;;20.75;19.25;;;;;11.73;61.52;101902.63;5062352;28;45424;-68
2021/11/08 02:02:05;;;;;;;;;25.50;22.25;;;;;11.71;61.73;101908.91;5061699;28;45483;-69
2021/11/08 02:04:31;;;;;;;;;22.25;20.50;;;;;11.72;61.72;101908.00;5062370;28;45940;-69
2021/11/08 02:06:56;;;;;;;;;22.00;20.25;;;;;11.68;61.60;101899.16;5061611;28;45382;-69
2021/11/08 02:09:21;;;;;;;;;22.50;21.00;;;;;11.65;61.71;101899.22;5059107;28;45532;-69
2021/11/08 02:11:47;;;;;;;;;23.25;20.00;;;;;11.65;61.71;101900.06;5061538;28;46700;-68
2021/11/08 02:14:13;;;;;;;;;22.25;17.75;;;;;11.63;61.72;101904.56;5060540;28;45351;-68
2021/11/08 02:16:38;;;;;;;;;19.00;19.00;;;;;11.61;61.48;101908.19;5061354;28;45367;-68
2021/11/08 02:19:05;;;;;;;;;21.75;18.00;;;;;11.60;61.33;101909.97;5061908;28;45404;-68
2021/11/08 02:21:31;;;;;;;;;20.50;17.00;;;;;11.58;61.40;101902.91;5061736;28;45458;-68
2021/11/08 02:23:58;;;;;;;;;15.50;14.75;;;;;11.60;61.93;101906.44;5061761;28;45992;-68
2021/11/08 02:26:23;;;;;;;;;18.75;15.00;;;;;11.57;61.64;101893.13;5061562;28;45614;-68
2021/11/08 02:28:52;;;;;;;;;18.75;16.25;;;;;11.53;61.60;101894.97;5061931;28;45267;-68
2021/11/08 02:31:21;;;;;;;;;16.25;16.25;;;;;11.55;61.84;101898.50;5061072;28;45486;-68
2021/11/08 02:33:49;;;;;;;;;25.50;19.25;;;;;11.49;61.60;101887.88;5052997;28;46722;-69
2021/11/08 02:36:16;;;;;;;;;21.50;16.00;;;;;11.50;61.75;101889.66;5060225;28;45634;-68
2021/11/08 02:38:46;;;;;;;;;20.75;18.25;;;;;11.51;61.78;101896.78;5061448;28;45248;-68
2021/11/08 02:41:13;;;;;;;;;17.75;17.25;;;;;11.49;62.13;101899.50;5061579;28;45322;-68
2021/11/08 02:43:39;;;;;;;;;21.25;20.25;;;;;11.46;61.92;101893.28;5060995;28;46553;-68
2021/11/08 02:46:14;;;;;;;;;18.25;15.25;;;;;11.47;61.88;101903.97;5057916;28;45327;-68
2021/11/08 02:48:42;;;;;;;;;18.75;15.50;;;;;11.45;61.83;101902.25;5061396;28;45341;-68
2021/11/08 02:51:22;;;;;;;;;17.75;16.75;;;;;11.41;61.96;101893.38;5061403;28;45309;-68
2021/11/08 02:53:50;;;;;;;;;21.25;20.75;;;;;11.40;61.98;101894.28;5061085;28;46172;-68
2021/11/08 02:56:15;;;;;;;;;21.50;19.75;;;;;11.39;61.64;101897.84;5061404;28;45244;-68
2021/11/08 02:58:43;;;;;;;;;16.00;16.00;;;;;11.38;62.13;101905.94;5061371;28;45397;-68
2021/11/08 03:01:13;;;;;;;;;22.50;18.25;;;;;11.32;62.18;101886.38;5050772;28;45397;-69
2021/11/08 03:03:45;;;;;;;;;16.50;15.25;;;;;11.34;62.09;101894.38;5060019;28;47398;-69
2021/11/08 03:06:44;;;;;;;;;20.50;15.00;;;;;11.32;61.96;101890.88;5061226;28;45325;-69
2021/11/08 03:09:11;;;;;;;;;20.75;18.00;;;;;11.27;62.06;101890.94;5059963;28;45632;-69
2021/11/08 03:11:36;;;;;;;;;14.25;13.25;;;;;11.25;62.17;101895.44;5054665;28;45488;-69
2021/11/08 03:14:05;;;;;;;;;18.75;14.75;;;;;11.27;62.04;101900.75;5060972;28;45342;-69
2021/11/08 03:19:25;;;;;;;;;17.00;13.00;;;;;11.22;61.85;101907.97;5061405;28;45362;-69
2021/11/08 03:21:55;;;;;;;;;17.75;16.50;;;;;11.21;62.02;101904.41;5060524;28;45252;-69
2021/11/08 03:24:35;;;;;;;;;22.00;18.25;;;;;11.17;62.16;101902.69;5061010;28;46079;-69
2021/11/08 03:27:07;;;;;;;;;22.50;19.75;;;;;11.19;62.07;101913.34;5057659;28;45714;-68
2021/11/08 03:29:32;;;;;;;;;17.75;15.25;;;;;11.17;61.86;101920.53;5061101;28;45251;-68
2021/11/08 03:32:00;;;;;;;;;22.25;20.75;;;;;11.12;62.03;101910.78;5059959;28;45306;-68
2021/11/08 03:34:26;;;;;;;;;20.25;19.25;;;;;11.14;61.95;101913.44;5060639;28;47133;-68
2021/11/08 03:36:51;;;;;;;;;20.75;17.50;;;;;11.11;62.07;101917.03;5060506;28;45242;-68
2021/11/08 03:39:18;;;;;;;;;20.75;18.25;;;;;11.09;61.70;101915.28;5060762;28;45406;-68
2021/11/08 03:41:44;;;;;;;;;20.50;19.50;;;;;11.09;61.73;101909.94;5060411;28;45390;-68
2021/11/08 03:44:09;;;;;;;;;28.25;21.50;;;;;11.07;62.06;101917.97;5060328;28;45425;-68
2021/11/08 03:46:34;;;;;;;;;22.50;21.00;;;;;11.03;61.65;101905.59;5053885;28;45354;-68
2021/11/08 03:49:00;;;;;;;;;24.00;19.00;;;;;11.05;61.71;101908.25;5053309;28;45425;-68
2021/11/08 03:51:26;;;;;;;;;25.25;22.50;;;;;11.06;61.74;101912.66;5060572;28;45428;-68
2021/11/08 03:53:51;;;;;;;;;23.25;21.00;;;;;11.02;62.09;101900.28;5060234;28;47199;-68
2021/11/08 03:56:16;;;;;;;;;17.75;15.50;;;;;11.06;61.82;101907.31;5060145;28;45332;-68
2021/11/08 03:58:42;;;;;;;;;17.50;17.50;;;;;11.04;62.24;101901.13;5060863;28;45406;-68
2021/11/08 04:01:07;;;;;;;;;18.00;17.25;;;;;11.03;62.06;101902.91;5060192;28;45350;-68
2021/11/08 04:03:34;;;;;;;;;26.25;22.00;;;;;11.03;62.16;101900.25;5059658;28;45909;-68
2021/11/08 04:05:59;;;;;;;;;17.75;16.50;;;;;10.98;61.76;101891.44;5060260;28;45635;-68
2021/11/08 04:08:25;;;;;;;;;25.75;19.25;;;;;10.99;61.91;101892.31;5060308;28;45246;-68
2021/11/08 04:10:54;;;;;;;;;22.50;19.00;;;;;10.99;62.12;101897.63;5058875;28;45497;-68
2021/11/08 04:13:23;;;;;;;;;20.50;19.00;;;;;10.98;61.74;101888.75;5059794;28;46214;-68
2021/11/08 04:15:50;;;;;;;;;20.50;18.50;;;;;10.93;61.50;101895.97;5047386;28;45539;-68
2021/11/08 04:18:20;;;;;;;;;18.00;16.50;;;;;10.95;61.58;101912.84;5058604;28;45181;-68
2021/11/08 04:20:47;;;;;;;;;19.75;16.25;;;;;10.88;61.43;101904.03;5060065;28;45270;-68
2021/11/08 04:23:15;;;;;;;;;20.25;18.75;;;;;10.86;61.99;101899.59;5059365;28;45384;-68
2021/11/08 04:25:41;;;;;;;;;21.75;18.75;;;;;10.86;61.73;101907.63;5060224;28;45314;-68
2021/11/08 04:28:07;;;;;;;;;15.75;13.25;;;;;10.85;61.86;101905.88;5059931;28;45517;-68
2021/11/08 04:30:37;;;;;;;;;21.50;20.25;;;;;10.75;62.26;101892.66;5059919;28;45331;-68
2021/11/08 04:33:15;;;;;;;;;18.50;17.75;;;;;10.83;62.10;101910.38;5059065;28;46193;-68
2021/11/08 04:35:47;;;;;;;;;19.00;18.00;;;;;10.80;62.06;101907.72;5059322;28;45174;-68
2021/11/08 04:41:10;;;;;;;;;20.50;19.25;;;;;10.81;61.80;101914.81;5059437;28;45608;-68
2021/11/08 04:48:58;;;;;;;;;23.25;17.50;;;;;10.77;62.25;101915.78;5050061;28;45255;-68
2021/11/08 05:21:35;;;;;;;;;16.00;13.50;;;;;10.75;62.58;101915.81;5059160;28;45253;-68
2021/11/08 05:32:30;;;;;;;;;17.25;16.50;;;;;10.76;62.52;101912.25;5058641;28;45332;-68
2021/11/08 05:34:56;;;;;;;;;15.25;13.00;;;;;10.73;62.63;101912.28;5059349;28;45421;-68
2021/11/08 05:37:23;;;;;;;;;16.75;16.25;;;;;10.74;62.68;101914.03;5058974;28;45333;-68
2021/11/08 05:39:51;;;;;;;;;19.00;16.00;;;;;10.77;62.69;101923.81;5059177;28;45308;-69
2021/11/08 05:42:17;;;;;;;;;17.75;15.00;;;;;10.76;63.21;101922.94;5058922;28;45402;-69
2021/11/08 05:44:43;;;;;;;;;21.25;18.00;;;;;10.76;62.88;101922.94;5058725;28;45553;-69
2021/11/08 05:47:08;;;;;;;;;17.50;17.50;;;;;10.80;63.23;101932.66;5055485;28;46348;-69
2021/11/08 05:49:34;;;;;;;;;17.00;16.00;;;;;10.81;63.09;101933.53;5061866;28;45236;-69
2021/11/08 05:52:00;;;;;;;;;20.25;17.25;;;;;10.83;62.98;101937.06;5062284;28;45422;-69
2021/11/08 05:54:26;;;;;;;;;17.00;16.50;;;;;10.84;63.01;101936.16;5062367;28;45402;-69
2021/11/08 06:49:24;;;;;;;;;23.50;22.25;;;;;10.80;62.91;101982.53;5057181;28;45317;-68
2021/11/08 06:51:40;;;;;;;;;24.75;20.25;;;;;10.81;62.95;101981.59;5060187;28;45829;-68
2021/11/08 06:54:07;;;;;;;;;25.50;20.50;;;;;10.82;63.31;101986.91;5061052;28;45383;-68
2021/11/08 06:56:38;;;;;;;;;19.25;18.25;;;;;10.85;63.14;101996.69;5061412;28;45526;-68
2021/11/08 06:59:04;;;;;;;;;23.50;19.00;;;;;10.81;62.83;101985.19;5059714;28;45514;-68
2021/11/08 07:01:31;;;;;;;;;24.00;20.25;;;;;10.82;63.40;101996.72;5059083;28;45761;-69
2021/11/08 07:03:56;;;;;;;;;21.50;21.25;;;;;10.83;63.13;101995.84;5060356;28;45455;-70
2021/11/08 07:06:23;;;;;;;;;32.25;24.50;;;;;10.84;63.04;102003.84;5060767;28;45386;-68
2021/11/08 07:08:49;;;;;;;;;25.00;20.75;;;;;10.85;63.09;101994.91;5060078;28;45484;-68
2021/11/08 07:11:15;;;;;;;;;22.00;19.00;;;;;10.87;63.02;102009.13;5052935;28;46152;-73
2021/11/08 07:13:40;;;;;;;;;25.25;23.25;;;;;10.88;63.04;102005.53;5060809;28;45339;-66
2021/11/08 07:16:05;;;;;;;;;36.50;32.75;;;;;10.89;63.18;102009.09;5061177;28;45412;-67
2021/11/08 07:18:31;;;;;;;;;31.50;26.50;;;;;10.87;63.44;102003.78;5060435;28;45481;-68
2021/11/08 07:20:56;;;;;;;;;29.75;27.75;;;;;10.90;63.02;102002.84;5058819;28;45990;-68
2021/11/08 07:23:22;;;;;;;;;30.00;26.00;;;;;10.92;63.56;102014.41;5055236;28;45291;-69
2021/11/08 07:25:47;;;;;;;;;29.00;23.75;;;;;10.92;63.23;102014.41;5060941;28;45192;-69
2021/11/08 07:28:14;;;;;;;;;25.50;21.50;;;;;10.93;63.14;102018.84;5060607;28;45325;-69
2021/11/08 07:30:43;;;;;;;;;26.00;22.50;;;;;10.92;63.64;102012.59;5059377;28;45449;-69
2021/11/08 07:33:08;;;;;;;;;20.50;18.25;;;;;10.91;63.17;102012.66;5060689;28;46705;-69
2021/11/08 07:35:34;;;;;;;;;17.25;15.00;;;;;10.93;63.00;102017.06;5060474;28;45624;-69
2021/11/08 07:37:59;;;;;;;;;14.50;13.00;;;;;10.92;63.78;102014.41;5060415;28;45227;-69
2021/11/08 07:40:25;;;;;;;;;13.50;12.00;;;;;10.98;63.20;102022.34;5059092;28;46116;-69
2021/11/08 07:42:50;;;;;;;;;12.00;10.00;;;;;10.98;63.69;102019.66;5049284;28;45311;-67
2021/11/08 07:45:16;;;;;;;;;14.25;11.50;;;;;11.01;63.37;102034.75;5058166;28;45428;-68
2021/11/08 07:47:41;;;;;;;;;10.00;9.25;;;;;11.03;63.12;102031.19;5047837;28;45422;-69
2021/11/08 07:50:07;;;;;;;;;9.50;9.50;;;;;11.06;63.55;102030.22;5058251;28;46235;-68
2021/11/08 07:52:33;;;;;;;;;11.50;10.00;;;;;11.07;63.28;102030.22;5060496;28;45326;-77
2021/11/08 07:54:59;;;;;;;;;9.50;9.25;;;;;11.10;63.33;102027.50;5060625;28;45326;-69
2021/11/08 07:57:25;;;;;;;;;12.75;10.00;;;;;11.09;63.71;102027.53;5060253;28;45444;-68
2021/11/08 07:59:50;;;;;;;;;9.25;9.25;;;;;11.08;63.41;102023.97;5059073;28;46093;-68
2021/11/08 08:02:16;;;;;;;;;10.25;9.00;;;;;11.13;63.51;102035.47;5056854;28;45771;-68
2021/11/08 08:04:42;;;;;;;;;11.50;9.75;;;;;11.13;63.79;102029.25;5060719;28;45308;-69
2021/11/08 08:07:08;;;;;;;;;16.75;11.00;;;;;11.19;63.55;102038.97;5062152;28;45549;-68
2021/11/08 08:09:37;;;;;;;;;10.50;9.50;;;;;11.21;63.84;102039.81;5053892;28;46380;-68
2021/11/08 08:12:08;;;;;;;;;9.75;9.25;;;;;11.24;63.73;102045.13;5074781;27;45404;-68
2021/11/08 08:14:39;;;;;;;;;11.75;9.75;;;;;11.26;63.70;102043.31;5059726;28;45405;-68
2021/11/08 08:17:07;;;;;;;;;12.50;9.75;;;;;11.26;63.54;102046.91;5056965;28;45430;-68
2021/11/08 08:19:33;;;;;;;;;10.50;9.50;;;;;11.32;63.07;102056.59;5058177;28;46153;-67
2021/11/08 08:21:58;;;;;;;;;13.75;10.50;;;;;11.37;63.41;102052.06;5057222;28;45453;-67
2021/11/08 08:24:24;;;;;;;;;14.00;11.00;;;;;11.41;63.51;102048.47;5059738;28;45292;-67
2021/11/08 08:26:50;;;;;;;;;17.00;10.25;;;;;11.42;62.82;102047.53;5059657;28;45421;-67
2021/11/08 08:29:15;;;;;;;;;12.00;10.75;;;;;11.47;63.58;102045.66;5060083;28;45356;-67
2021/11/08 08:31:50;;;;;;;;;14.75;12.75;;;;;11.51;63.29;102043.88;5058958;28;46574;-67
2021/11/08 08:34:17;;;;;;;;;16.25;15.75;;;;;11.55;63.01;102053.59;5058862;28;45393;-67
2021/11/08 08:36:43;;;;;;;;;16.50;12.50;;;;;11.58;62.75;102050.88;5059656;28;45557;-67
2021/11/08 08:39:09;;;;;;;;;13.75;11.00;;;;;11.54;62.83;102050.94;5059923;28;45413;-67
2021/11/08 08:41:35;;;;;;;;;11.25;10.25;;;;;11.57;62.77;102054.44;5059572;28;45272;-67
2021/11/08 08:44:00;;;;;;;;;13.25;11.50;;;;;11.61;62.72;102053.50;5059978;28;45236;-67
2021/11/08 08:46:26;;;;;;;;;13.50;10.50;;;;;11.64;62.43;102058.81;5052795;28;45395;-67
2021/11/08 08:48:53;;;;;;;;;14.50;11.00;;;;;11.69;62.82;102064.06;5059261;28;46265;-67
2021/11/08 08:51:19;;;;;;;;;12.75;12.75;;;;;11.63;62.99;102045.47;5059210;28;45260;-67
2021/11/08 08:53:45;;;;;;;;;12.75;10.75;;;;;11.75;62.62;102061.28;5059694;28;45322;-67
2021/11/08 08:56:10;;;;;;;;;14.00;13.00;;;;;11.79;62.74;102067.47;5059190;28;45477;-67
2021/11/08 08:58:38;;;;;;;;;13.00;12.25;;;;;11.80;62.40;102062.09;5059393;28;45241;-67
2021/11/08 09:01:04;;;;;;;;;13.75;11.50;;;;;11.81;62.15;102065.66;5058606;28;45355;-68
2021/11/08 09:03:29;;;;;;;;;12.25;11.25;;;;;11.81;61.95;102071.00;5059343;28;45551;-67
2021/11/08 09:05:54;;;;;;;;;13.50;11.75;;;;;11.79;62.11;102060.31;5059134;28;45316;-65
2021/11/08 09:08:20;;;;;;;;;12.25;10.75;;;;;11.82;61.94;102065.63;5057847;28;47978;-67
2021/11/08 09:10:46;;;;;;;;;15.25;13.25;;;;;11.84;61.94;102060.25;5053528;28;45303;-67
2021/11/08 09:13:12;;;;;;;;;14.25;12.00;;;;;11.87;61.79;102063.75;5051570;28;45337;-67
2021/11/08 09:15:40;;;;;;;;;14.25;13.25;;;;;11.91;61.93;102071.75;5058951;28;45320;-67
2021/11/08 09:18:06;;;;;;;;;15.00;14.00;;;;;11.94;61.99;102069.03;5058916;28;45331;-67
2021/11/08 09:20:33;;;;;;;;;19.00;14.50;;;;;11.98;61.87;102071.66;5059050;28;45340;-67
2021/11/08 09:22:59;;;;;;;;;16.25;14.25;;;;;11.99;61.89;102065.38;5061519;28;45262;-67
2021/11/08 09:25:25;;;;;;;;;15.25;13.00;;;;;12.03;61.90;102066.22;5062662;28;45525;-67
2021/11/08 09:27:53;;;;;;;;;15.50;11.50;;;;;12.05;62.15;102064.41;5062547;28;46091;-67
2021/11/08 09:30:22;;;;;;;;;15.75;13.25;;;;;12.08;62.22;102066.13;5062272;28;45501;-67
2021/11/08 09:32:48;;;;;;;;;18.25;13.25;;;;;12.11;61.90;102069.66;5062440;28;45250;-67
2021/11/08 09:35:15;;;;;;;;;16.00;13.25;;;;;12.14;61.90;102061.56;5062467;28;45264;-67
2021/11/08 09:37:44;;;;;;;;;13.00;13.00;;;;;12.19;61.67;102061.47;5062605;28;46305;-67
2021/11/08 09:40:21;;;;;;;;;14.75;12.50;;;;;12.22;61.53;102061.41;5062711;28;45152;-67
2021/11/08 09:42:50;;;;;;;;;11.75;11.00;;;;;12.25;61.35;102069.41;5062648;28;45389;-68
2021/11/08 09:45:16;;;;;;;;;10.50;8.25;;;;;12.28;60.92;102068.44;5062418;28;45560;-68
2021/11/08 09:47:44;;;;;;;;;11.75;10.75;;;;;12.28;60.88;102061.31;5061960;28;45460;-67
2021/11/08 09:50:12;;;;;;;;;9.25;6.25;;;;;12.32;61.01;102067.50;5061029;28;45461;-67
2021/11/08 09:52:41;;;;;;;;;8.25;8.25;;;;;12.34;61.21;102068.34;5062445;28;45532;-67
2021/11/08 09:55:10;;;;;;;;;12.25;9.75;;;;;12.34;61.17;102063.00;5062429;28;45540;-67
2021/11/08 09:57:36;;;;;;;;;10.25;8.00;;;;;12.35;60.98;102064.75;5062094;28;46279;-67
2021/11/08 10:00:48;;;;;;;;;12.75;8.75;;;;;12.39;60.75;102063.78;5062149;28;45361;-67
2021/11/08 10:03:21;;;;;;;;;11.00;8.25;;;;;12.40;60.61;102066.44;5032842;28;45387;-67
2021/11/08 10:05:48;;;;;;;;;7.75;7.00;;;;;12.44;60.39;102061.03;5061428;28;45319;-66
2021/11/08 10:08:19;;;;;;;;;7.75;7.75;;;;;12.44;60.31;102053.88;5062313;28;46194;-67
2021/11/08 10:10:45;;;;;;;;;10.75;7.00;;;;;12.48;60.01;102058.28;5050834;28;45318;-67
2021/11/08 10:13:15;;;;;;;;;8.50;7.75;;;;;12.50;59.63;102051.06;5054452;28;45354;-67
2021/11/08 10:15:45;;;;;;;;;9.25;7.00;;;;;12.56;59.48;102058.09;5061785;28;45455;-67
2021/11/08 10:18:11;;;;;;;;;7.50;5.50;;;;;12.59;59.16;102058.03;5061708;28;47011;-67
2021/11/08 10:20:45;;;;;;;;;9.50;7.25;;;;;12.60;58.83;102052.66;5048851;28;45253;-67
2021/11/08 10:23:13;;;;;;;;;8.00;5.50;;;;;12.66;59.09;102051.63;5062006;28;45291;-67
2021/11/08 10:25:41;;;;;;;;;5.50;5.25;;;;;12.68;58.40;102059.66;5061969;28;45578;-66
2021/11/08 10:28:20;;;;;;;;;6.75;5.25;;;;;12.73;58.55;102061.34;5061752;28;46287;-66
2021/11/08 10:30:48;;;;;;;;;9.00;6.25;;;;;12.75;58.18;102061.31;5061411;28;45413;-66
2021/11/08 10:33:23;;;;;;;;;8.00;6.25;;;;;12.78;58.47;102063.94;5061004;28;45374;-67
2021/11/08 10:35:51;;;;;;;;;8.25;7.00;;;;;12.81;58.32;102065.66;5060091;28;45316;-67
2021/11/08 10:38:21;;;;;;;;;8.00;7.00;;;;;12.84;58.25;102065.59;5061551;28;46376;-67
2021/11/08 10:40:55;;;;;;;;;8.50;4.50;;;;;12.86;58.05;102069.13;5061662;28;45390;-66
2021/11/08 10:43:46;;;;;;;;;5.75;4.50;;;;;12.90;57.88;102057.44;5061842;28;45480;-68
2021/11/08 10:46:16;;;;;;;;;10.00;4.75;;;;;12.93;58.05;102055.56;5060092;27;45551;-64
2021/11/08 10:48:44;;;;;;;;;8.75;5.00;;;;;12.96;57.82;102059.97;5059721;28;46386;-66
2021/11/08 10:51:13;;;;;;;;;6.00;3.50;;;;;12.98;57.69;102055.47;5061241;28;45240;-65
2021/11/08 10:54:02;;;;;;;;;5.00;5.00;;;;;13.02;57.82;102057.16;5061546;28;45350;-66
2021/11/08 10:56:36;;;;;;;;;4.75;4.25;;;;;13.03;57.37;102052.66;5060922;28;45323;-66
2021/11/08 10:59:08;;;;;;;;;6.50;4.00;;;;;13.04;57.21;102052.63;5060323;28;45495;-66
2021/11/08 11:01:39;;;;;;;;;5.25;5.00;;;;;13.09;57.19;102048.06;5057145;28;45447;-66
2021/11/08 11:04:06;;;;;;;;;5.00;4.00;;;;;13.11;57.08;102046.25;5060301;28;46755;-65
2021/11/08 11:06:46;;;;;;;;;6.25;4.00;;;;;13.15;57.36;102055.09;5059993;28;45443;-71
2021/11/08 11:09:17;;;;;;;;;8.50;5.00;;;;;13.17;57.46;102050.56;5060514;28;46037;-70
2021/11/08 11:11:44;;;;;;;;;6.75;4.75;;;;;13.19;57.19;102042.50;5059430;28;45416;-69
2021/11/08 11:14:10;;;;;;;;;8.00;5.50;;;;;13.18;56.55;102047.00;5060582;28;45541;-69
2021/11/08 11:16:38;;;;;;;;;7.25;4.25;;;;;13.24;57.24;102045.97;5059159;28;45664;-64
2021/11/08 11:19:10;;;;;;;;;7.00;6.50;;;;;13.23;57.03;102041.50;5062978;28;46310;-66
2021/11/08 11:21:37;;;;;;;;;8.00;5.75;;;;;13.27;57.32;102049.44;5058136;28;45381;-68
2021/11/08 11:24:05;;;;;;;;;6.25;4.00;;;;;13.29;56.99;102050.28;5060993;28;45385;-67
2021/11/08 11:26:36;;;;;;;;;4.00;4.00;;;;;13.32;56.89;102050.25;5053622;28;45765;-67
2021/11/08 11:29:03;;;;;;;;;6.25;4.25;;;;;13.31;56.64;102039.53;5058941;28;45658;-67
2021/11/08 11:31:34;;;;;;;;;5.00;5.00;;;;;13.31;56.24;102035.06;5058975;28;45454;-67
2021/11/08 11:34:15;;;;;;;;;7.00;5.00;;;;;13.34;56.49;102024.28;5059626;28;45379;-67
2021/11/08 11:36:42;;;;;;;;;2.25;2.25;;;;;13.38;56.13;102029.56;5059395;28;45319;-67
2021/11/08 11:39:16;;;;;;;;;1.75;1.75;;;;;13.41;55.90;102032.19;5059416;28;45445;-67
2021/11/08 11:41:44;;;;;;;;;4.50;4.00;;;;;13.43;55.84;102033.03;5059133;28;45542;-67
2021/11/08 11:44:14;;;;;;;;;2.00;2.00;;;;;13.44;55.23;102021.41;5059406;28;45401;-67
2021/11/08 11:46:44;;;;;;;;;8.00;3.00;;;;;13.44;55.23;102010.66;5056469;28;45394;-67
2021/11/08 11:49:10;;;;;;;;;4.00;4.00;;;;;13.43;55.62;102016.94;5043112;28;47377;-67
2021/11/08 11:51:40;;;;;;;;;3.75;3.00;;;;;13.46;55.06;102022.22;5058957;28;45353;-67
2021/11/08 11:54:08;;;;;;;;;6.50;4.00;;;;;13.44;55.07;102013.34;5059498;28;45512;-67
2021/11/08 11:56:36;;;;;;;;;7.00;3.00;;;;;13.46;55.19;102011.50;5059100;28;45386;-67
2021/11/08 11:59:03;;;;;;;;;4.50;4.00;;;;;13.46;55.22;102008.81;5059048;28;45448;-67
2021/11/08 12:01:30;;;;;;;;;5.50;4.25;;;;;13.47;55.45;102014.16;5056077;28;45551;-67
2021/11/08 12:03:56;;;;;;;;;4.00;4.00;;;;;13.47;54.93;102003.41;5059271;28;45442;-67
2021/11/08 12:06:30;;;;;;;;;6.00;5.00;;;;;13.44;55.02;101991.88;5058596;28;45390;-67
2021/11/08 12:08:57;;;;;;;;;6.25;4.50;;;;;13.48;54.86;102009.66;5059847;28;45451;-67
2021/11/08 12:11:36;;;;;;;;;4.75;3.75;;;;;13.50;54.89;102003.34;5059539;28;45263;-67
2021/11/08 12:14:05;;;;;;;;;4.75;3.00;;;;;13.49;54.79;102003.38;5059331;28;45420;-67
2021/11/08 12:16:33;;;;;;;;;5.25;3.00;;;;;13.49;54.87;101996.22;5059474;28;45515;-65
2021/11/08 12:19:00;;;;;;;;;4.75;4.75;;;;;13.49;54.74;101993.53;5059692;28;46090;-66
2021/11/08 12:21:25;;;;;;;;;3.00;1.75;;;;;13.46;54.20;101985.56;5059392;28;45644;-67
2021/11/08 12:23:53;;;;;;;;;3.75;2.50;;;;;13.44;53.94;101992.75;5057957;28;45625;-68
2021/11/08 12:26:24;;;;;;;;;2.50;2.50;;;;;13.44;54.23;101990.06;5057886;28;45548;-67
2021/11/08 12:28:51;;;;;;;;;2.50;2.25;;;;;13.47;53.99;101981.09;5057762;28;45437;-67
2021/11/08 12:31:22;;;;;;;;;5.00;3.75;;;;;13.48;54.09;101985.50;5057776;28;45625;-67
2021/11/08 12:34:06;;;;;;;;;2.50;1.00;;;;;13.52;54.03;101982.72;5057394;28;45378;-67
2021/11/08 12:36:32;;;;;;;;;4.00;3.00;;;;;13.52;54.09;101982.72;5057574;28;45457;-65
2021/11/08 12:39:03;;;;;;;;;3.00;3.00;;;;;13.48;54.19;101972.09;5057444;28;46463;-67
2021/11/08 12:41:48;;;;;;;;;6.25;3.75;;;;;13.52;54.16;101979.19;5057508;28;45383;-67
2021/11/08 12:44:19;;;;;;;;;4.00;4.00;;;;;13.51;54.22;101967.56;5057959;28;45406;-67
2021/11/08 12:46:46;;;;;;;;;9.00;5.00;;;;;13.56;53.91;101959.38;5057600;28;45285;-66
2021/11/08 12:49:36;;;;;;;;;5.75;4.50;;;;;13.57;53.98;101961.16;5057556;28;45467;-66
2021/11/08 12:52:05;;;;;;;;;4.00;4.00;;;;;13.60;53.99;101963.78;5056833;28;45471;-65
2021/11/08 12:54:51;;;;;;;;;4.00;4.00;;;;;13.57;53.90;101954.91;5057698;28;45433;-66
2021/11/08 12:57:20;;;;;;;;;3.00;3.00;;;;;13.53;54.02;101957.69;5058905;28;45561;-66
2021/11/08 12:59:48;;;;;;;;;5.50;4.25;;;;;13.52;54.43;101955.91;5060966;28;46437;-66
2021/11/08 13:02:23;;;;;;;;;6.25;5.00;;;;;13.57;54.14;101952.25;5061405;28;45810;-68
2021/11/08 13:04:55;;;;;;;;;10.25;6.75;;;;;13.56;54.37;101939.72;5061480;28;45378;-70